Time;durP1;ratioP1;P1;durP2;ratioP2;P2;SDS_P1;SDS_P2;PMS_P1;PMS_P2;Temp;Humidity;BMP_temperature;BMP_pressure;BME280_temperature;BME280_humidity;BME280_pressure;Samples;Min_cycle;Max_cycle;Signal;HPM_P1;HPM_P2
2023/10/16 00:02:23;;;;;;;0.63;0.60;;;7.10;99.90;;;;;;5096881;28;20118;-66
2023/10/16 00:04:50;;;;;;;1.27;0.70;;;7.00;99.90;;;;;;5114624;28;20139;-66
2023/10/16 00:07:20;;;;;;;1.13;0.77;;;6.90;99.90;;;;;;5114986;28;20047;-66
2023/10/16 00:09:47;;;;;;;0.82;0.65;;;7.00;99.90;;;;;;5096414;28;20039;-66
2023/10/16 00:12:16;;;;;;;0.85;0.70;;;7.70;99.90;;;;;;5114798;28;20127;-66
2023/10/16 00:14:47;;;;;;;1.20;0.82;;;6.90;99.90;;;;;;5096374;28;20032;-66
2023/10/16 00:17:15;;;;;;;1.98;0.60;;;6.90;99.90;;;;;;5096221;28;20114;-66
2023/10/16 00:19:44;;;;;;;0.80;0.65;;;7.10;99.90;;;;;;5114706;28;20032;-66
2023/10/16 00:22:15;;;;;;;0.98;0.88;;;7.00;99.90;;;;;;5114627;28;20054;-65
2023/10/16 00:24:47;;;;;;;0.55;0.52;;;7.00;99.90;;;;;;5096433;28;20039;-65
2023/10/16 00:27:16;;;;;;;0.68;0.68;;;7.00;99.90;;;;;;5114326;28;20033;-66
2023/10/16 00:29:45;;;;;;;0.88;0.85;;;7.10;99.90;;;;;;5114494;28;20055;-66
2023/10/16 00:32:11;;;;;;;0.73;0.70;;;7.00;99.90;;;;;;5096070;28;20395;-65
2023/10/16 00:34:38;;;;;;;0.60;0.60;;;7.10;99.90;;;;;;5114455;28;20043;-65
2023/10/16 00:37:04;;;;;;;0.60;0.60;;;7.10;99.90;;;;;;5114348;28;20046;-65
2023/10/16 00:39:35;;;;;;;0.73;0.70;;;7.10;99.90;;;;;;5114417;28;20115;-66
2023/10/16 00:42:01;;;;;;;0.70;0.70;;;7.60;99.90;;;;;;5114387;28;20062;-66
2023/10/16 00:44:38;;;;;;;0.60;0.60;;;7.10;99.90;;;;;;5113926;28;20039;-66
2023/10/16 00:47:05;;;;;;;0.70;0.70;;;7.20;99.90;;;;;;5095667;28;20427;-66
2023/10/16 00:49:35;;;;;;;0.60;0.60;;;7.20;99.90;;;;;;5079095;28;20032;-67
2023/10/16 00:52:03;;;;;;;1.08;0.75;;;7.20;99.90;;;;;;5095984;28;20044;-67
2023/10/16 00:54:38;;;;;;;0.73;0.73;;;7.20;99.90;;;;;;5095623;28;20040;-67
2023/10/16 00:57:07;;;;;;;0.60;0.60;;;7.20;99.90;;;;;;5114016;28;20127;-67
2023/10/16 00:59:35;;;;;;;0.73;0.70;;;7.20;99.90;;;;;;5114161;28;20077;-66
2023/10/16 01:02:15;;;;;;;0.55;0.50;;;7.40;99.90;;;;;;5113744;28;20032;-65
2023/10/16 01:04:41;;;;;;;0.60;0.60;;;7.30;99.90;;;;;;5113992;28;20067;-66
2023/10/16 01:07:09;;;;;;;0.55;0.52;;;8.30;99.90;;;;;;5113893;28;20066;-66
2023/10/16 01:09:39;;;;;;;1.02;0.93;;;7.30;99.90;;;;;;5095698;28;20447;-67
2023/10/16 01:12:08;;;;;;;0.70;0.70;;;7.30;99.90;;;;;;5113733;28;20047;-67
2023/10/16 01:14:37;;;;;;;0.75;0.70;;;7.20;99.90;;;;;;5113855;28;20063;-67
2023/10/16 01:17:08;;;;;;;0.55;0.55;;;8.90;99.90;;;;;;5113433;28;20086;-67
2023/10/16 01:19:34;;;;;;;0.65;0.65;;;7.20;99.90;;;;;;5113795;28;20040;-67
2023/10/16 01:22:00;;;;;;;0.75;0.65;;;7.20;99.90;;;;;;5113640;28;20043;-67
2023/10/16 01:24:27;;;;;;;0.50;0.50;;;7.20;99.90;;;;;;5095181;28;20381;-67
2023/10/16 01:26:57;;;;;;;0.60;0.60;;;7.20;99.90;;;;;;5095108;28;20088;-67
2023/10/16 01:29:25;;;;;;;0.73;0.50;;;7.20;99.90;;;;;;5112296;28;20054;-67
2023/10/16 01:31:52;;;;;;;1.73;0.90;;;7.20;99.90;;;;;;5113291;28;20039;-67
2023/10/16 01:34:22;;;;;;;0.77;0.60;;;7.20;99.90;;;;;;5113561;28;20040;-67
2023/10/16 01:36:47;;;;;;;0.75;0.65;;;7.10;99.90;;;;;;5113553;28;20443;-67
2023/10/16 01:42:01;;;;;;;0.63;0.63;;;7.10;99.90;;;;;;5114314;28;20071;-67
2023/10/16 01:44:28;;;;;;;1.10;0.60;;;7.10;99.90;;;;;;5099409;28;20047;-67
2023/10/16 01:46:54;;;;;;;0.77;0.57;;;8.00;99.90;;;;;;5099177;28;20070;-67
2023/10/16 01:49:24;;;;;;;0.60;0.60;;;7.10;99.90;;;;;;5117653;28;20046;-67
2023/10/16 01:51:55;;;;;;;0.50;0.50;;;7.10;99.90;;;;;;5117255;28;20044;-67
2023/10/16 01:54:24;;;;;;;0.55;0.55;;;7.10;99.90;;;;;;5117289;28;20031;-67
2023/10/16 01:56:50;;;;;;;0.60;0.60;;;7.10;99.90;;;;;;5117199;28;20090;-67
2023/10/16 01:59:16;;;;;;;0.70;0.70;;;7.10;99.90;;;;;;5117501;28;20035;-67
2023/10/16 02:01:42;;;;;;;0.77;0.77;;;7.10;99.90;;;;;;5099194;28;20042;-67
2023/10/16 02:04:08;;;;;;;0.50;0.50;;;7.10;99.90;;;;;;5117115;28;20032;-67
2023/10/16 02:06:33;;;;;;;0.57;0.57;;;7.10;99.90;;;;;;5117056;28;20498;-67
2023/10/16 02:09:04;;;;;;;1.48;0.95;;;7.10;99.90;;;;;;5117446;28;20502;-66
2023/10/16 02:11:30;;;;;;;1.48;0.70;;;7.20;99.90;;;;;;5116909;28;20454;-65
2023/10/16 02:13:55;;;;;;;0.90;0.70;;;7.20;99.90;;;;;;5117168;28;20106;-66
2023/10/16 02:16:25;;;;;;;1.10;0.68;;;7.20;99.90;;;;;;5117151;28;20043;-65
2023/10/16 02:18:51;;;;;;;0.80;0.80;;;7.20;99.90;;;;;;5115591;28;20407;-67
2023/10/16 02:21:17;;;;;;;1.08;0.60;;;7.20;99.90;;;;;;5117010;28;20035;-66
2023/10/16 02:23:44;;;;;;;0.60;0.60;;;7.50;99.90;;;;;;5098831;28;20039;-66
2023/10/16 02:26:11;;;;;;;0.57;0.57;;;7.20;99.90;;;;;;5098615;28;20479;-66
2023/10/16 02:28:40;;;;;;;0.60;0.60;;;7.10;99.90;;;;;;5116693;28;20046;-67
2023/10/16 02:31:14;;;;;;;1.63;0.95;;;7.10;99.90;;;;;;5115577;28;20042;-67
2023/10/16 02:33:51;;;;;;;0.85;0.60;;;7.10;99.90;;;;;;5116723;28;20394;-67
2023/10/16 02:36:23;;;;;;;0.60;0.60;;;7.00;99.90;;;;;;5116484;28;20043;-67
2023/10/16 02:38:50;;;;;;;1.05;0.50;;;7.00;99.90;;;;;;5116735;28;20044;-67
2023/10/16 02:41:19;;;;;;;0.85;0.60;;;7.00;99.90;;;;;;5098279;28;20039;-67
2023/10/16 02:43:48;;;;;;;0.50;0.50;;;7.00;99.90;;;;;;5116430;28;20054;-67
2023/10/16 02:46:14;;;;;;;1.52;0.60;;;7.00;99.90;;;;;;5116582;28;20062;-66
2023/10/16 02:48:41;;;;;;;0.65;0.50;;;7.10;99.90;;;;;;5116503;28;20051;-67
2023/10/16 02:51:09;;;;;;;0.55;0.55;;;7.10;99.90;;;;;;5098358;28;20050;-67
2023/10/16 02:53:36;;;;;;;0.60;0.60;;;7.10;99.90;;;;;;5115034;28;20084;-67
2023/10/16 02:56:05;;;;;;;0.50;0.50;;;7.20;99.90;;;;;;5116354;28;20043;-66
2023/10/16 02:58:32;;;;;;;0.63;0.52;;;7.20;99.90;;;;;;5116336;28;20044;-67
2023/10/16 03:01:06;;;;;;;0.60;0.60;;;7.20;99.90;;;;;;5097774;28;20046;-67
2023/10/16 03:03:31;;;;;;;1.05;0.50;;;7.20;99.90;;;;;;5098013;28;20497;-67
2023/10/16 03:06:03;;;;;;;0.70;0.70;;;7.30;99.90;;;;;;5115777;28;20134;-66
2023/10/16 03:08:29;;;;;;;0.73;0.70;;;7.30;99.90;;;;;;5116128;28;20044;-67
2023/10/16 03:11:04;;;;;;;0.50;0.50;;;7.30;99.90;;;;;;5115779;28;20399;-67
2023/10/16 03:13:35;;;;;;;0.50;0.50;;;7.30;99.90;;;;;;5116005;28;20075;-67
2023/10/16 03:16:11;;;;;;;0.45;0.45;;;7.20;99.90;;;;;;5115770;28;20040;-67
2023/10/16 03:18:42;;;;;;;0.43;0.43;;;7.20;99.90;;;;;;5115958;28;20028;-67
2023/10/16 03:23:43;;;;;;;2.80;0.75;;;7.20;99.90;;;;;;5115826;28;20050;-66
2023/10/16 03:26:25;;;;;;;0.40;0.40;;;7.20;99.90;;;;;;5115532;28;20065;-66
2023/10/16 03:29:05;;;;;;;0.90;0.63;;;7.20;99.90;;;;;;5097234;28;20040;-67
2023/10/16 03:31:36;;;;;;;0.60;0.60;;;7.20;99.90;;;;;;5114464;28;20436;-67
2023/10/16 03:34:02;;;;;;;0.57;0.57;;;7.20;99.90;;;;;;5115390;28;20047;-69
2023/10/16 03:36:28;;;;;;;0.47;0.47;;;7.20;99.90;;;;;;5097071;28;20043;-66
2023/10/16 03:38:57;;;;;;;0.50;0.50;;;7.20;99.90;;;;;;5097146;28;20085;-67
2023/10/16 03:43:56;;;;;;;0.63;0.60;;;7.20;99.90;;;;;;5115474;28;20048;-67
2023/10/16 03:46:26;;;;;;;0.50;0.50;;;7.30;99.90;;;;;;5115400;28;20398;-67
2023/10/16 03:48:53;;;;;;;0.70;0.70;;;7.30;99.90;;;;;;5115168;28;20650;-67
2023/10/16 03:51:18;;;;;;;1.38;0.88;;;7.30;99.90;;;;;;5115044;28;20085;-67
2023/10/16 03:53:44;;;;;;;0.45;0.45;;;7.40;99.90;;;;;;5114904;28;20044;-67
2023/10/16 03:56:13;;;;;;;0.55;0.55;;;7.40;99.90;;;;;;5096995;28;20039;-67
2023/10/16 03:58:44;;;;;;;0.90;0.63;;;7.40;99.90;;;;;;5115217;28;20051;-67
2023/10/16 04:01:10;;;;;;;0.60;0.60;;;7.40;99.90;;;;;;5115073;28;20049;-67
2023/10/16 04:06:22;;;;;;;0.55;0.55;;;7.50;99.90;;;;;;5114144;28;20499;-67
2023/10/16 04:08:48;;;;;;;0.60;0.57;;;7.50;99.90;;;;;;5115013;28;20047;-67
2023/10/16 04:11:18;;;;;;;1.63;0.68;;;7.60;99.90;;;;;;5096679;28;20421;-67
2023/10/16 04:13:52;;;;;;;0.88;0.70;;;7.50;99.90;;;;;;5096366;28;20491;-67
2023/10/16 04:16:30;;;;;;;0.60;0.60;;;7.60;99.90;;;;;;5114821;28;20085;-67
2023/10/16 04:19:09;;;;;;;0.73;0.60;;;7.60;99.90;;;;;;5114707;28;20089;-67
2023/10/16 04:21:37;;;;;;;1.10;0.80;;;7.60;99.90;;;;;;5096059;28;20040;-67
2023/10/16 04:24:05;;;;;;;1.02;0.80;;;7.60;99.90;;;;;;5114637;28;20058;-67
2023/10/16 04:26:35;;;;;;;0.50;0.50;;;7.60;99.90;;;;;;5096159;28;20051;-67
2023/10/16 04:34:24;;;;;;;0.55;0.55;;;7.60;99.90;;;;;;5114346;28;20047;-66
2023/10/16 04:47:46;;;;;;;1.52;0.70;;;7.60;99.90;;;;;;5114270;28;20430;-65
2023/10/16 04:50:14;;;;;;;1.02;0.70;;;7.60;99.90;;;;;;5113967;28;20032;-67
2023/10/16 04:56:15;;;;;;;0.70;0.68;;;7.60;99.90;;;;;;5095777;28;20043;-67
2023/10/16 05:11:36;;;;;;;1.80;0.95;;;7.80;99.90;;;;;;5113871;28;20055;-67
2023/10/16 05:19:17;;;;;;;0.85;0.80;;;7.50;99.90;;;;;;5095181;28;20040;-67
2023/10/16 06:16:17;;;;;;;0.77;0.65;;;7.40;99.90;;;;;;5113175;28;20036;-66
2023/10/16 06:18:49;;;;;;;1.52;0.75;;;7.40;99.90;;;;;;5094947;28;20047;-65
2023/10/16 06:21:15;;;;;;;0.52;0.52;;;7.40;99.90;;;;;;5113098;28;20400;-66
2023/10/16 06:23:51;;;;;;;0.85;0.70;;;7.40;99.90;;;;;;5112846;28;20039;-65
2023/10/16 06:26:18;;;;;;;0.73;0.73;;;7.40;99.90;;;;;;5094496;28;20407;-65
2023/10/16 06:28:47;;;;;;;1.88;0.73;;;7.50;99.90;;;;;;5115042;28;20063;-65
2023/10/16 06:31:15;;;;;;;0.93;0.70;;;7.50;99.90;;;;;;5098400;28;20040;-65
2023/10/16 06:33:43;;;;;;;1.10;1.00;;;7.60;99.90;;;;;;5081355;28;20035;-65
2023/10/16 06:36:10;;;;;;;1.02;0.93;;;7.60;99.90;;;;;;5116726;28;20164;-65
2023/10/16 06:38:36;;;;;;;0.77;0.77;;;;;;;;;;5116791;28;20043;-65
2023/10/16 06:41:02;;;;;;;0.60;0.60;;;7.70;99.90;;;;;;5116460;28;20039;-66
2023/10/16 06:43:27;;;;;;;0.60;0.60;;;7.70;99.90;;;;;;5116384;28;20505;-65
2023/10/16 06:45:56;;;;;;;0.68;0.68;;;7.70;99.90;;;;;;5098063;28;20050;-65
2023/10/16 06:48:22;;;;;;;0.60;0.60;;;7.70;99.90;;;;;;5116468;28;20050;-66
2023/10/16 06:50:54;;;;;;;0.68;0.68;;;7.80;99.90;;;;;;5098095;28;20044;-64
2023/10/16 06:53:22;;;;;;;0.70;0.65;;;7.80;99.90;;;;;;5116416;28;20049;-64
2023/10/16 06:55:51;;;;;;;0.73;0.70;;;7.80;99.90;;;;;;5116191;28;20047;-64
2023/10/16 06:58:18;;;;;;;0.50;0.50;;;7.90;99.90;;;;;;5097780;28;20093;-64
2023/10/16 07:00:47;;;;;;;1.98;0.70;;;7.90;99.90;;;;;;5116356;28;20421;-64
2023/10/16 07:03:13;;;;;;;1.23;1.00;;;8.00;99.90;;;;;;5114723;28;20048;-64
2023/10/16 07:05:42;;;;;;;0.60;0.60;;;8.10;99.90;;;;;;5097475;28;20052;-65
2023/10/16 07:08:22;;;;;;;0.68;0.68;;;8.10;99.90;;;;;;5097832;28;20395;-65
2023/10/16 07:10:49;;;;;;;0.60;0.60;;;8.10;99.90;;;;;;5097831;28;20043;-65
2023/10/16 07:13:27;;;;;;;0.60;0.60;;;8.20;99.90;;;;;;5097565;28;20518;-65
2023/10/16 07:16:04;;;;;;;0.65;0.63;;;8.30;99.90;;;;;;5115811;28;20417;-65
2023/10/16 07:18:34;;;;;;;0.75;0.50;;;8.30;99.90;;;;;;5097684;28;20073;-65
2023/10/16 07:23:37;;;;;;;0.82;0.70;;;8.40;99.90;;;;;;5097475;28;20079;-66
2023/10/16 07:26:09;;;;;;;0.95;0.60;;;8.40;99.90;;;;;;5115532;28;20114;-67
2023/10/16 07:28:36;;;;;;;0.93;0.68;;;8.40;99.90;;;;;;5097170;28;20035;-65
2023/10/16 07:31:10;;;;;;;0.73;0.65;;;8.40;99.90;;;;;;5097022;28;20046;-66
2023/10/16 07:33:35;;;;;;;0.70;0.70;;;8.40;99.90;;;;;;5114100;28;20445;-66
2023/10/16 07:36:01;;;;;;;0.70;0.65;;;8.50;99.90;;;;;;5080267;28;20127;-65
2023/10/16 07:38:28;;;;;;;0.90;0.70;;;8.50;99.90;;;;;;5115133;28;20028;-65
2023/10/16 07:40:59;;;;;;;0.70;0.70;;;8.50;99.90;;;;;;5114498;28;20395;-66
2023/10/16 07:43:27;;;;;;;;;;;8.50;99.90;;;;;;5115897;28;20176;-65
2023/10/16 07:48:45;;;;;;;0.65;0.65;;;8.60;99.90;;;;;;5115390;28;20046;-65
2023/10/16 07:51:12;;;;;;;0.70;0.70;;;8.70;99.90;;;;;;5096828;28;20043;-66
2023/10/16 07:53:38;;;;;;;0.68;0.68;;;8.80;99.90;;;;;;5097036;28;20035;-66
2023/10/16 07:59:06;;;;;;;0.82;0.70;;;9.00;99.90;;;;;;5115265;28;20035;-64
2023/10/16 08:01:36;;;;;;;1.13;0.80;;;9.10;99.90;;;;;;5096733;28;20046;-64
2023/10/16 08:07:17;;;;;;;0.60;0.60;;;9.20;99.90;;;;;;5115040;28;20055;-66
2023/10/16 08:12:20;;;;;;;1.13;0.85;;;9.30;99.90;;;;;;5096367;28;20053;-67
2023/10/16 08:14:47;;;;;;;1.00;0.90;;;9.80;99.90;;;;;;5096678;28;20035;-66
2023/10/16 08:17:17;;;;;;;1.08;0.98;;;9.40;99.90;;;;;;5079427;28;20042;-66
2023/10/16 08:19:44;;;;;;;0.80;0.80;;;9.30;99.90;;;;;;5096303;28;20403;-67
2023/10/16 08:22:13;;;;;;;0.77;0.70;;;9.40;99.90;;;;;;5114606;28;20440;-67
2023/10/16 08:24:57;;;;;;;1.15;0.90;;;9.40;99.90;;;;;;5114652;28;20047;-68
2023/10/16 08:27:41;;;;;;;0.70;0.70;;;9.50;99.90;;;;;;5114346;28;20078;-67
2023/10/16 08:33:06;;;;;;;0.82;0.82;;;9.70;99.90;;;;;;5095956;28;20043;-67
2023/10/16 08:35:38;;;;;;;0.73;0.60;;;9.90;99.90;;;;;;5114192;28;20040;-67
2023/10/16 08:38:10;;;;;;;0.60;0.60;;;10.60;99.90;;;;;;5114089;28;20082;-67
2023/10/16 08:40:39;;;;;;;1.15;1.00;;;10.00;99.90;;;;;;5096295;28;20082;-69
2023/10/16 08:43:07;;;;;;;0.85;0.57;;;10.10;99.90;;;;;;5095826;28;20055;-65
2023/10/16 08:45:33;;;;;;;0.80;0.80;;;10.60;99.90;;;;;;5114267;28;20039;-65
2023/10/16 08:48:05;;;;;;;0.80;0.80;;;10.10;99.90;;;;;;5096045;28;20415;-64
2023/10/16 08:50:41;;;;;;;0.80;0.70;;;10.00;99.90;;;;;;5114165;28;20035;-64
2023/10/16 08:53:17;;;;;;;0.73;0.73;;;10.10;99.90;;;;;;5113734;28;20044;-65
2023/10/16 08:55:44;;;;;;;1.33;0.95;;;10.20;99.90;;;;;;5078661;28;20039;-65
2023/10/16 08:58:11;;;;;;;0.70;0.70;;;10.30;99.90;;;;;;5095590;28;20448;-65
2023/10/16 09:00:38;;;;;;;1.50;0.85;;;10.30;99.90;;;;;;5096123;28;20068;-65
2023/10/16 09:03:06;;;;;;;2.15;0.80;;;10.40;99.90;;;;;;5113982;28;20420;-65
2023/10/16 09:05:31;;;;;;;1.75;0.80;;;10.40;99.90;;;;;;5095353;28;20052;-65
2023/10/16 09:07:57;;;;;;;0.88;0.70;;;10.40;99.90;;;;;;5113878;28;20394;-65
2023/10/16 09:10:23;;;;;;;0.73;0.70;;;10.50;99.90;;;;;;5113954;28;20403;-66
2023/10/16 09:13:07;;;;;;;0.60;0.60;;;10.60;99.90;;;;;;5113850;28;20385;-66
2023/10/16 09:15:32;;;;;;;1.08;0.98;;;10.60;99.90;;;;;;5095372;28;20433;-66
2023/10/16 09:17:58;;;;;;;1.33;0.93;;;10.70;99.90;;;;;;5113801;28;20035;-66
2023/10/16 09:20:33;;;;;;;0.85;0.70;;;10.70;99.90;;;;;;5113763;28;20051;-66
2023/10/16 09:23:02;;;;;;;0.77;0.60;;;10.70;99.90;;;;;;5095222;28;20456;-66
2023/10/16 09:25:31;;;;;;;1.15;0.70;;;10.80;99.90;;;;;;5113409;28;20036;-66
2023/10/16 09:27:57;;;;;;;1.25;0.80;;;10.80;99.90;;;;;;5095169;28;20444;-66
2023/10/16 09:30:23;;;;;;;1.30;0.80;;;10.80;99.90;;;;;;5113308;28;20043;-66
2023/10/16 09:32:51;;;;;;;0.73;0.73;;;10.90;99.90;;;;;;5113482;28;20467;-67
2023/10/16 09:35:18;;;;;;;2.03;1.20;;;10.90;99.90;;;;;;5113487;28;20398;-66
2023/10/16 09:37:52;;;;;;;1.42;0.80;;;11.50;99.90;;;;;;5113572;28;20111;-66
2023/10/16 09:43:06;;;;;;;0.60;0.60;;;11.10;99.90;;;;;;5113492;28;20048;-66
2023/10/16 09:45:36;;;;;;;0.68;0.68;;;11.30;99.90;;;;;;5113518;28;20089;-66
2023/10/16 09:48:07;;;;;;;1.75;1.02;;;11.40;99.90;;;;;;5078140;28;20035;-66
2023/10/16 09:50:36;;;;;;;1.38;0.70;;;11.50;99.90;;;;;;5078102;28;20043;-66
2023/10/16 09:53:02;;;;;;;1.10;0.80;;;11.50;99.90;;;;;;5095124;28;20043;-65
2023/10/16 09:55:38;;;;;;;0.90;0.60;;;11.50;99.90;;;;;;5113380;28;20032;-65
2023/10/16 09:58:06;;;;;;;0.77;0.63;;;11.40;99.90;;;;;;5112982;28;20047;-65
2023/10/16 10:00:33;;;;;;;1.05;0.90;;;11.40;99.90;;;;;;5113349;28;20039;-67
2023/10/16 10:03:07;;;;;;;1.08;0.70;;;11.30;99.90;;;;;;5113851;28;20092;-64
2023/10/16 10:05:41;;;;;;;0.88;0.70;;;11.30;99.90;;;;;;5098865;28;20059;-64
2023/10/16 10:08:17;;;;;;;0.55;0.55;;;11.30;99.90;;;;;;5117355;28;20432;-64
2023/10/16 10:13:36;;;;;;;0.82;0.63;;;11.20;99.90;;;;;;5098746;28;20051;-65
2023/10/16 10:16:12;;;;;;;0.70;0.60;;;11.30;99.90;;;;;;5081804;28;20036;-64
2023/10/16 10:18:45;;;;;;;1.55;1.00;;;10.90;99.90;;;;;;5116297;28;20039;-65
2023/10/16 10:21:18;;;;;;;0.60;0.60;;;11.40;99.90;;;;;;5117281;28;20071;-65
2023/10/16 10:23:47;;;;;;;0.93;0.75;;;11.50;99.90;;;;;;5117119;28;20042;-64
2023/10/16 10:26:20;;;;;;;0.85;0.45;;;11.50;99.90;;;;;;5098858;28;20082;-65
2023/10/16 10:29:04;;;;;;;0.52;0.52;;;11.70;99.90;;;;;;5116808;28;20039;-64
2023/10/16 10:31:31;;;;;;;0.68;0.52;;;11.70;99.90;;;;;;5116578;28;20093;-65
2023/10/16 10:33:58;;;;;;;1.27;0.82;;;11.80;99.90;;;;;;5098251;28;20042;-65
2023/10/16 10:36:29;;;;;;;1.27;0.57;;;12.00;99.90;;;;;;5116841;28;20051;-65
2023/10/16 10:42:03;;;;;;;0.43;0.43;;;11.90;99.90;;;;;;5110879;28;20039;-66
2023/10/16 10:44:35;;;;;;;0.50;0.50;;;12.00;99.90;;;;;;5116678;28;20040;-65
2023/10/16 10:47:14;;;;;;;0.60;0.52;;;12.00;99.90;;;;;;5116301;28;20119;-65
2023/10/16 10:49:42;;;;;;;1.17;0.75;;;12.00;99.90;;;;;;5116544;28;20040;-71
2023/10/16 10:52:07;;;;;;;0.60;0.60;;;12.00;99.90;;;;;;5116369;28;20088;-65
2023/10/16 10:54:34;;;;;;;1.00;0.50;;;12.10;99.90;;;;;;5116491;28;20118;-65
2023/10/16 10:57:07;;;;;;;1.77;0.90;;;12.10;99.90;;;;;;5097929;28;20384;-65
2023/10/16 10:59:40;;;;;;;0.65;0.60;;;12.10;99.90;;;;;;5116488;28;20471;-67
2023/10/16 11:05:22;;;;;;;0.50;0.50;;;12.80;99.90;;;;;;5116112;28;20083;-67
2023/10/16 11:07:45;;;;;;;0.77;0.70;;;11.90;99.90;;;;;;5115438;28;20152;-67
2023/10/16 11:10:13;;;;;;;0.68;0.60;;;12.00;99.90;;;;;;5097742;28;20118;-65
2023/10/16 11:12:38;;;;;;;0.50;0.50;;;12.10;99.90;;;;;;5116065;28;20048;-65
2023/10/16 11:15:10;;;;;;;2.17;0.60;;;12.20;99.90;;;;;;5096284;28;20047;-65
2023/10/16 11:17:40;;;;;;;0.60;0.60;;;12.20;99.90;;;;;;5098047;28;20089;-68
2023/10/16 11:20:27;;;;;;;0.50;0.50;;;12.70;99.90;;;;;;5114446;28;20119;-71
2023/10/16 11:22:56;;;;;;;0.50;0.50;;;12.30;99.90;;;;;;5115991;28;20043;-66
2023/10/16 11:25:28;;;;;;;2.03;1.05;;;12.30;99.90;;;;;;5097335;28;20039;-66
2023/10/16 11:27:57;;;;;;;0.68;0.68;;;12.40;99.90;;;;;;5115840;28;20155;-65
2023/10/16 11:30:26;;;;;;;0.40;0.40;;;12.50;99.90;;;;;;5097283;28;20122;-65
2023/10/16 11:32:55;;;;;;;0.47;0.40;;;12.50;99.90;;;;;;5115714;28;20054;-65
2023/10/16 11:35:21;;;;;;;1.55;0.93;;;12.40;99.90;;;;;;5097406;28;20071;-65
2023/10/16 11:37:59;;;;;;;1.02;0.60;;;12.50;99.90;;;;;;5097148;28;20044;-65
2023/10/16 11:40:33;;;;;;;0.80;0.60;;;12.70;99.90;;;;;;5115571;28;20039;-65
2023/10/16 11:43:00;;;;;;;0.65;0.60;;;12.60;99.90;;;;;;5115592;28;20108;-65
2023/10/16 11:45:30;;;;;;;0.68;0.50;;;12.50;99.90;;;;;;5097302;28;20070;-65
2023/10/16 11:50:43;;;;;;;0.60;0.50;;;12.70;99.90;;;;;;5115383;28;20039;-65
2023/10/16 11:53:08;;;;;;;1.35;0.57;;;12.70;99.90;;;;;;5115297;28;20055;-65
2023/10/16 11:55:38;;;;;;;0.38;0.30;;;12.80;99.90;;;;;;5115171;28;20395;-65
2023/10/16 11:58:07;;;;;;;0.70;0.40;;;12.90;99.90;;;;;;5115213;28;20047;-65
2023/10/16 12:00:35;;;;;;;0.55;0.40;;;12.90;99.90;;;;;;5096887;28;20499;-65
2023/10/16 12:03:07;;;;;;;0.68;0.60;;;12.80;99.90;;;;;;5115075;28;20047;-65
2023/10/16 12:05:34;;;;;;;0.75;0.57;;;12.80;99.90;;;;;;5114613;28;20051;-65
2023/10/16 12:08:02;;;;;;;1.00;0.50;;;12.90;99.90;;;;;;5113333;28;20066;-65
2023/10/16 12:10:28;;;;;;;0.82;0.60;;;12.90;99.90;;;;;;5113611;28;20118;-65
2023/10/16 12:12:55;;;;;;;1.33;0.88;;;12.90;99.90;;;;;;5114800;28;20084;-65
2023/10/16 12:15:25;;;;;;;0.43;0.43;;;12.90;99.90;;;;;;5114814;28;20075;-65
2023/10/16 12:17:53;;;;;;;0.65;0.30;;;12.90;99.90;;;;;;5114528;28;20083;-65
2023/10/16 12:20:21;;;;;;;1.00;0.50;;;12.80;99.90;;;;;;5114504;28;20047;-65
2023/10/16 12:22:49;;;;;;;1.98;0.68;;;12.70;99.90;;;;;;5114633;28;20043;-65
2023/10/16 12:25:15;;;;;;;0.60;0.47;;;12.60;99.90;;;;;;5114557;28;20039;-65
2023/10/16 12:27:40;;;;;;;0.68;0.68;;;12.50;99.90;;;;;;5114397;28;20162;-65
2023/10/16 12:30:13;;;;;;;0.65;0.30;;;12.50;99.90;;;;;;5114153;28;20471;-65
2023/10/16 12:32:38;;;;;;;0.70;0.40;;;12.40;99.90;;;;;;5114405;28;20075;-65
2023/10/16 12:35:08;;;;;;;0.90;0.60;;;12.40;99.90;;;;;;5114441;28;20427;-65
2023/10/16 12:37:34;;;;;;;1.17;0.50;;;12.40;99.90;;;;;;5114411;28;20046;-65
2023/10/16 12:40:24;;;;;;;0.50;0.40;;;12.40;99.90;;;;;;5114458;28;20028;-66
2023/10/16 12:42:45;;;;;;;1.85;0.88;;;12.50;99.90;;;;;;5114088;28;20050;-66
2023/10/16 12:45:11;;;;;;;0.68;0.50;;;12.50;99.90;;;;;;5113948;28;20475;-66
2023/10/16 12:47:37;;;;;;;0.55;0.50;;;12.50;99.90;;;;;;5113900;28;20046;-66
2023/10/16 12:50:05;;;;;;;0.90;0.50;;;12.50;99.90;;;;;;5113864;28;20040;-66
2023/10/16 12:52:31;;;;;;;0.70;0.40;;;12.60;99.90;;;;;;5113989;28;20035;-66
2023/10/16 12:55:00;;;;;;;0.50;0.50;;;12.70;99.90;;;;;;5114100;28;20111;-66
2023/10/16 12:57:27;;;;;;;1.17;0.68;;;12.70;99.90;;;;;;5114101;28;20067;-66
2023/10/16 12:59:56;;;;;;;0.80;0.43;;;12.70;99.90;;;;;;5095835;28;20044;-66
2023/10/16 13:02:31;;;;;;;1.13;0.75;;;13.30;99.90;;;;;;5113933;28;20104;-66
2023/10/16 13:05:01;;;;;;;1.30;0.88;;;12.70;99.90;;;;;;5113695;28;20509;-66
2023/10/16 13:07:27;;;;;;;0.87;0.57;;;12.70;99.90;;;;;;5113603;28;20043;-66
2023/10/16 13:09:53;;;;;;;0.70;0.40;;;12.70;99.90;;;;;;5113617;28;20311;-66
2023/10/16 13:12:21;;;;;;;1.20;0.55;;;12.70;99.90;;;;;;5113419;28;20083;-66
2023/10/16 13:14:49;;;;;;;0.82;0.50;;;12.70;99.90;;;;;;5113767;28;20106;-66
2023/10/16 13:17:15;;;;;;;1.08;0.68;;;12.70;99.90;;;;;;5095257;28;20563;-66
2023/10/16 13:19:41;;;;;;;0.55;0.30;;;12.60;99.90;;;;;;5113478;28;20122;-66
2023/10/16 13:22:11;;;;;;;0.93;0.60;;;12.50;99.90;;;;;;5113653;28;20100;-66
2023/10/16 13:24:37;;;;;;;2.30;1.17;;;12.60;99.90;;;;;;5113377;28;20118;-67
2023/10/16 13:27:02;;;;;;;0.88;0.68;;;12.30;99.90;;;;;;5113692;28;20515;-66
2023/10/16 13:29:30;;;;;;;0.98;0.60;;;12.50;99.90;;;;;;5095501;28;20123;-66
2023/10/16 13:32:00;;;;;;;0.77;0.60;;;12.50;99.90;;;;;;5113394;28;20042;-65
2023/10/16 13:34:26;;;;;;;0.40;0.22;;;12.40;99.90;;;;;;5095363;28;20038;-65
2023/10/16 13:37:01;;;;;;;0.93;0.60;;;12.40;99.90;;;;;;5113497;28;20084;-65
2023/10/16 13:39:31;;;;;;;1.85;0.68;;;12.40;99.90;;;;;;5113125;28;20105;-65
2023/10/16 13:41:59;;;;;;;1.17;0.60;;;12.40;99.90;;;;;;5095191;28;20448;-65
2023/10/16 13:44:24;;;;;;;0.85;0.60;;;12.40;99.90;;;;;;5113507;28;20069;-65
2023/10/16 13:46:52;;;;;;;0.43;0.35;;;12.40;99.90;;;;;;5113542;28;20039;-65
2023/10/16 13:49:18;;;;;;;0.35;0.35;;;12.40;99.90;;;;;;5113475;28;20031;-65
2023/10/16 13:51:48;;;;;;;0.50;0.40;;;12.40;99.90;;;;;;5113602;28;20035;-66
2023/10/16 13:54:14;;;;;;;0.75;0.40;;;12.40;99.90;;;;;;5113313;28;20429;-67
2023/10/16 13:56:46;;;;;;;0.77;0.40;;;12.50;99.90;;;;;;5113122;28;20119;-66
2023/10/16 13:59:18;;;;;;;1.73;0.63;;;12.40;99.90;;;;;;5113104;28;20039;-66
2023/10/16 14:01:44;;;;;;;0.50;0.40;;;12.40;99.90;;;;;;5113393;28;20032;-66
2023/10/16 14:04:14;;;;;;;1.30;0.50;;;12.40;99.90;;;;;;5113178;28;20035;-66
2023/10/16 14:06:46;;;;;;;1.13;0.68;;;12.40;99.90;;;;;;5112966;28;20044;-66
2023/10/16 14:09:19;;;;;;;0.50;0.50;;;12.50;99.90;;;;;;5113138;28;20050;-67
2023/10/16 14:11:48;;;;;;;1.27;0.80;;;12.50;99.90;;;;;;5094950;28;20054;-67
2023/10/16 14:14:19;;;;;;;0.52;0.40;;;12.50;99.90;;;;;;5094521;28;20047;-67
2023/10/16 14:16:51;;;;;;;1.48;0.90;;;12.50;99.90;;;;;;5113120;28;20035;-67
2023/10/16 14:19:28;;;;;;;2.38;0.80;;;12.50;99.90;;;;;;5094821;28;20421;-67
2023/10/16 14:21:55;;;;;;;0.85;0.60;;;12.50;99.90;;;;;;5112846;28;20457;-67
2023/10/16 14:24:24;;;;;;;1.70;0.70;;;12.60;99.90;;;;;;5113126;28;20051;-66
2023/10/16 14:26:56;;;;;;;1.00;0.60;;;12.50;99.90;;;;;;5113160;28;20051;-66
2023/10/16 14:29:22;;;;;;;0.80;0.55;;;13.00;99.90;;;;;;5113158;28;20077;-66
2023/10/16 14:31:51;;;;;;;0.38;0.38;;;12.50;99.90;;;;;;5112827;28;20032;-66
2023/10/16 14:34:23;;;;;;;0.82;0.60;;;12.40;99.90;;;;;;5112993;28;20428;-66
2023/10/16 14:36:51;;;;;;;2.33;0.95;;;12.40;99.90;;;;;;5113053;28;20387;-66
2023/10/16 14:39:17;;;;;;;0.85;0.60;;;12.40;99.90;;;;;;5112971;28;20040;-66
2023/10/16 14:41:44;;;;;;;1.35;0.80;;;12.40;99.90;;;;;;5112737;28;20039;-66
2023/10/16 14:44:10;;;;;;;0.77;0.52;;;12.40;99.90;;;;;;5112881;28;20045;-67
2023/10/16 14:46:36;;;;;;;0.73;0.50;;;12.30;99.90;;;;;;5112877;28;20039;-67
2023/10/16 14:49:04;;;;;;;1.02;0.52;;;12.40;99.80;;;;;;5113818;28;20510;-67
2023/10/16 14:51:30;;;;;;;0.98;0.63;;;12.40;99.90;;;;;;5116537;28;20493;-66
2023/10/16 14:53:56;;;;;;;1.65;0.50;;;12.30;99.90;;;;;;5097980;28;20399;-65
2023/10/16 14:56:23;;;;;;;1.30;0.57;;;12.40;99.90;;;;;;5097992;28;20048;-65
2023/10/16 14:58:52;;;;;;;0.85;0.50;;;12.30;99.30;;;;;;5097843;28;20091;-65
2023/10/16 15:01:19;;;;;;;0.65;0.45;;;12.30;99.90;;;;;;5116353;28;20398;-67
2023/10/16 15:03:47;;;;;;;0.70;0.60;;;12.30;99.90;;;;;;5097986;28;20070;-66
2023/10/16 15:06:13;;;;;;;0.93;0.55;;;12.20;99.90;;;;;;5114606;28;20063;-66
2023/10/16 15:08:39;;;;;;;0.50;0.50;;;12.20;99.90;;;;;;5115968;28;20054;-67
2023/10/16 15:11:10;;;;;;;1.15;0.55;;;12.60;99.90;;;;;;5116217;28;20081;-67
2023/10/16 15:13:37;;;;;;;1.70;0.85;;;12.20;99.90;;;;;;5116074;28;20043;-73
2023/10/16 15:16:06;;;;;;;0.50;0.50;;;12.10;99.90;;;;;;5097620;28;20067;-67
2023/10/16 15:18:33;;;;;;;0.80;0.60;;;12.10;99.90;;;;;;5115721;28;20085;-74